Time;durP1;ratioP1;P1;durP2;ratioP2;P2;SDS_P1;SDS_P2;PMS_P1;PMS_P2;Temp;Humidity;BMP_temperature;BMP_pressure;BME280_temperature;BME280_humidity;BME280_pressure;Samples;Min_cycle;Max_cycle;Signal;HPM_P1;HPM_P2
2023/06/01 00:04:57;;;;;;;;;;;;;;;12.57;100.00;97773.56;18564160;32;20254;-49
2023/06/01 00:14:59;;;;;;;;;;;;;;;12.44;100.00;97781.19;18563480;31;19956;-49
2023/06/01 00:25:01;;;;;;;;;;;;;;;12.26;100.00;97785.34;18563520;32;20008;-47
2023/06/01 00:35:04;;;;;;;;;;;;;;;12.09;100.00;97785.69;18562252;32;19960;-48
2023/06/01 00:45:06;;;;;;;;;;;;;;;11.99;100.00;97785.72;18548141;32;19992;-51
2023/06/01 00:55:09;;;;;;;;;;;;;;;11.85;100.00;97780.88;18561582;32;19948;-50
2023/06/01 01:05:12;;;;;;;;;;;;;;;11.73;100.00;97783.06;18546732;32;19945;-48
2023/06/01 01:15:21;;;;;;;;;;;;;;;11.64;100.00;97771.19;18560809;32;19965;-52
2023/06/01 01:25:35;;;;;;;;;;;;;;;11.49;100.00;97777.44;18561112;32;19953;-50
2023/06/01 01:35:38;;;;;;;;;;;;;;;11.36;100.00;97781.53;18560286;32;19980;-49
2023/06/01 01:45:41;;;;;;;;;;;;;;;11.26;100.00;97778.81;18567103;32;19956;-49
2023/06/01 01:55:45;;;;;;;;;;;;;;;11.15;100.00;97783.41;18572593;32;20008;-48
2023/06/01 02:05:47;;;;;;;;;;;;;;;11.05;100.00;97778.81;18556726;31;19956;-52
2023/06/01 02:15:50;;;;;;;;;;;;;;;10.89;100.00;97780.69;18570999;32;20329;-53
2023/06/01 02:25:52;;;;;;;;;;;;;;;10.75;100.00;97780.41;18570180;32;19953;-51
2023/06/01 02:35:54;;;;;;;;;;;;;;;10.69;100.00;97781.50;18569658;32;20302;-50
2023/06/01 02:45:57;;;;;;;;;;;;;;;10.61;100.00;97773.91;18569242;32;19996;-51
2023/06/01 02:55:59;;;;;;;;;;;;;;;10.50;100.00;97762.25;18567261;31;20017;-53
2023/06/01 03:06:02;;;;;;;;;;;;;;;10.43;100.00;97764.38;18568354;32;20325;-50
2023/06/01 03:16:05;;;;;;;;;;;;;;;10.38;100.00;97765.19;18567321;32;19964;-50
2023/06/01 03:26:07;;;;;;;;;;;;;;;10.29;100.00;97772.16;18566842;32;20388;-52
2023/06/01 03:36:10;;;;;;;;;;;;;;;10.26;100.00;97772.69;18566234;32;19975;-54
2023/06/01 03:46:13;;;;;;;;;;;;;;;10.23;100.00;97773.22;18565472;32;20360;-53
2023/06/01 03:56:16;;;;;;;;;;;;;;;10.23;100.00;97775.94;18564793;32;19975;-51
2023/06/01 04:06:18;;;;;;;;;;;;;;;10.24;100.00;97785.66;18563916;32;19949;-52
2023/06/01 04:16:20;;;;;;;;;;;;;;;10.24;100.00;97793.78;18563787;32;20012;-51
2023/06/01 04:26:25;;;;;;;;;;;;;;;10.34;100.00;97800.03;18563622;32;19961;-50
2023/06/01 04:36:29;;;;;;;;;;;;;;;10.53;100.00;97804.16;18562569;32;19976;-51
2023/06/01 04:46:31;;;;;;;;;;;;;;;10.76;100.00;97811.78;18547311;31;19968;-52
2023/06/01 04:56:34;;;;;;;;;;;;;;;11.01;100.00;97815.59;18561633;32;20000;-52
2023/06/01 05:06:37;;;;;;;;;;;;;;;11.31;100.00;97814.00;18547700;32;20256;-53
2023/06/01 05:16:39;;;;;;;;;;;;;;;11.64;100.00;97811.81;18535888;32;19992;-53
2023/06/01 05:26:41;;;;;;;;;;;;;;;12.00;100.00;97819.88;18574065;32;20005;-54
2023/06/01 05:36:45;;;;;;;;;;;;;;;12.40;100.00;97818.09;18573239;32;19976;-53
2023/06/01 05:46:49;;;;;;;;;;;;;;;12.81;100.00;97822.50;18572672;32;19999;-52
2023/06/01 05:56:51;;;;;;;;;;;;;;;13.23;100.00;97830.06;18572313;32;20329;-51
2023/06/01 06:06:54;;;;;;;;;;;;;;;13.73;100.00;97826.41;18557434;32;19994;-53
2023/06/01 06:16:57;;;;;;;;;;;;;;;14.29;100.00;97837.78;18571023;32;20045;-52
2023/06/01 06:27:01;;;;;;;;;;;;;;;14.91;100.00;97843.28;18570214;32;19957;-50
2023/06/01 06:37:06;;;;;;;;;;;;;;;15.59;100.00;97839.25;18569575;32;19979;-54
2023/06/01 06:47:08;;;;;;;;;;;;;;;16.30;100.00;97843.69;18569163;32;19957;-55
2023/06/01 06:57:12;;;;;;;;;;;;;;;16.86;100.00;97849.91;18554509;32;19968;-55
2023/06/01 07:07:14;;;;;;;;;;;;;;;17.46;100.00;97850.75;18553943;32;19965;-50
2023/06/01 07:17:17;;;;;;;;;;;;;;;17.97;100.00;97854.16;18567501;32;19992;-55
2023/06/01 07:27:20;;;;;;;;;;;;;;;18.39;94.92;97853.84;18552108;31;19989;-54
2023/06/01 07:37:26;;;;;;;;;;;;;;;18.89;92.94;97867.22;18566276;32;20305;-54
2023/06/01 07:47:28;;;;;;;;;;;;;;;19.34;85.99;97865.31;18565046;32;19994;-52
2023/06/01 07:57:31;;;;;;;;;;;;;;;19.74;78.81;97868.66;18565033;32;19996;-48
2023/06/01 08:07:35;;;;;;;;;;;;;;;20.06;70.25;97869.25;18549899;32;19964;-50
2023/06/01 08:17:38;;;;;;;;;;;;;;;20.35;70.58;97853.16;18563570;32;19987;-49
2023/06/01 08:27:44;;;;;;;;;;;;;;;20.73;69.28;97863.34;18563191;32;20055;-48
2023/06/01 08:37:47;;;;;;;;;;;;;;;21.18;69.68;97859.94;18547957;32;19953;-50
2023/06/01 08:47:52;;;;;;;;;;;;;;;21.48;61.79;97868.13;18547983;32;19952;-49
2023/06/01 08:57:59;;;;;;;;;;;;;;;21.86;65.90;97856.12;18561688;32;19979;-48
2023/06/01 09:08:07;;;;;;;;;;;;;;;22.13;59.57;97856.63;18547998;32;19996;-49
2023/06/01 09:18:10;;;;;;;;;;;;;;;22.50;63.35;97852.00;18546729;31;20250;-51
2023/06/01 09:28:13;;;;;;;;;;;;;;;22.80;59.34;97849.00;18560913;32;20342;-48
2023/06/01 09:38:36;;;;;;;;;;;;;;;23.18;60.77;97850.53;18560191;32;20008;-48
2023/06/01 09:48:39;;;;;;;;;;;;;;;23.63;60.42;97834.06;18545568;32;19956;-52
2023/06/01 09:58:43;;;;;;;;;;;;;;;23.95;57.29;97843.22;18559813;32;20272;-49
2023/06/01 10:08:51;;;;;;;;;;;;;;;24.28;55.07;97831.03;18569157;32;20659;-51
2023/06/01 10:19:02;;;;;;;;;;;;;;;24.55;53.12;97828.50;18571006;32;19985;-51
2023/06/01 10:29:05;;;;;;;;;;;;;;;24.95;54.96;97821.13;18570380;32;20261;-49
2023/06/01 10:39:27;;;;;;;;;;;;;;;25.54;54.37;97819.22;18555448;32;20004;-51
2023/06/01 10:49:49;;;;;;;;;;;;;;;25.76;51.41;97814.06;18569198;32;20230;-48
2023/06/01 11:00:14;;;;;;;;;;;;;;;25.96;47.22;97806.53;18568843;32;19967;-49
2023/06/01 11:10:36;;;;;;;;;;;;;;;26.04;46.67;97792.44;18567698;32;19956;-53
2023/06/01 11:20:40;;;;;;;;;;;;;;;26.29;42.52;97786.50;18566604;32;19987;-51
2023/06/01 11:30:43;;;;;;;;;;;;;;;26.59;45.28;97774.69;18566458;31;20000;-51
2023/06/01 11:41:00;;;;;;;;;;;;;;;27.18;48.36;97774.28;18566141;32;19978;-50
2023/06/01 11:51:05;;;;;;;;;;;;;;;27.18;43.33;97768.75;18565445;32;20341;-53
2023/06/01 12:01:09;;;;;;;;;;;;;;;27.76;42.77;97769.38;18550255;32;19989;-54
2023/06/01 12:11:14;;;;;;;;;;;;;;;28.09;43.33;97762.16;18549651;32;20293;-53
2023/06/01 12:21:18;;;;;;;;;;;;;;;28.34;43.42;97740.91;18563687;32;20010;-52
2023/06/01 12:31:22;;;;;;;;;;;;;;;29.07;46.45;97740.09;18562373;31;20012;-50
2023/06/01 12:41:25;;;;;;;;;;;;;;;29.03;41.73;97732.94;18548622;32;19996;-51
2023/06/01 12:51:29;;;;;;;;;;;;;;;29.47;43.98;97720.75;18547643;32;19968;-49
2023/06/01 13:01:33;;;;;;;;;;;;;;;29.88;44.94;97705.69;18561355;32;19953;-51
2023/06/01 13:11:37;;;;;;;;;;;;;;;29.80;42.74;97706.87;18561076;32;19964;-52
2023/06/01 13:21:40;;;;;;;;;;;;;;;30.57;40.05;97696.06;18546405;32;19971;-53
2023/06/01 13:31:44;;;;;;;;;;;;;;;30.82;38.74;97686.00;18560134;32;20012;-53
2023/06/01 13:41:48;;;;;;;;;;;;;;;30.96;41.06;97682.34;18553589;32;20264;-51
2023/06/01 13:51:51;;;;;;;;;;;;;;;31.32;34.63;97673.81;18558271;31;19957;-49
2023/06/01 14:01:54;;;;;;;;;;;;;;;31.38;40.63;97658.19;18572100;32;19988;-52
2023/06/01 14:11:57;;;;;;;;;;;;;;;31.55;34.66;97659.28;18571454;32;19949;-52
2023/06/01 14:22:00;;;;;;;;;;;;;;;31.90;34.05;97635.84;18570953;32;20009;-51
2023/06/01 14:32:05;;;;;;;;;;;;;;;32.50;34.81;97629.22;18556210;31;19957;-51
2023/06/01 14:42:08;;;;;;;;;;;;;;;32.35;32.80;97615.37;18569912;32;20039;-53
2023/06/01 14:52:11;;;;;;;;;;;;;;;32.62;38.36;97603.47;18568861;32;19968;-49
2023/06/01 15:02:14;;;;;;;;;;;;;;;31.94;35.58;97591.03;18568615;32;19953;-53
2023/06/01 15:12:19;;;;;;;;;;;;;;;30.33;33.55;97583.31;18568347;32;19965;-50
2023/06/01 15:22:22;;;;;;;;;;;;;;;29.54;36.92;97569.53;18567227;32;20230;-49
2023/06/01 15:32:26;;;;;;;;;;;;;;;29.30;36.10;97568.34;18566415;31;19965;-49
2023/06/01 15:42:29;;;;;;;;;;;;;;;28.70;39.45;97543.59;18565759;31;20348;-48
2023/06/01 15:52:32;;;;;;;;;;;;;;;28.50;41.30;97532.00;18565420;32;19953;-51
2023/06/01 16:02:38;;;;;;;;;;;;;;;28.12;39.11;97522.34;18564293;32;20043;-48
2023/06/01 16:12:42;;;;;;;;;;;;;;;27.87;38.11;97521.03;18564486;32;20003;-48
2023/06/01 16:22:44;;;;;;;;;;;;;;;27.89;41.45;97512.28;18563581;32;19952;-52
2023/06/01 16:32:48;;;;;;;;;;;;;;;27.95;38.71;97499.59;18562654;31;19952;-49
2023/06/01 16:42:52;;;;;;;;;;;;;;;27.39;40.14;97485.00;18562939;32;20316;-51
2023/06/01 16:52:56;;;;;;;;;;;;;;;27.69;41.88;97490.34;18562082;32;19960;-53
2023/06/01 17:02:59;;;;;;;;;;;;;;;27.29;39.69;97485.72;18561538;32;19956;-50
2023/06/01 17:13:03;;;;;;;;;;;;;;;26.95;38.78;97470.00;18546502;32;19989;-50
2023/06/01 17:23:06;;;;;;;;;;;;;;;26.77;39.53;97474.59;18560709;32;19953;-49
2023/06/01 17:33:13;;;;;;;;;;;;;;;26.85;38.62;97474.28;18560354;32;19944;-50
2023/06/01 17:43:17;;;;;;;;;;;;;;;26.39;41.50;97480.16;18545969;32;19945;-52
2023/06/01 17:53:21;;;;;;;;;;;;;;;26.11;39.51;97469.56;18560016;32;20329;-49
2023/06/01 18:03:42;;;;;;;;;;;;;;;26.27;40.08;97472.91;18547757;32;19957;-50
2023/06/01 18:13:45;;;;;;;;;;;;;;;27.58;38.43;97478.37;18559511;32;20032;-53
2023/06/01 18:23:49;;;;;;;;;;;;;;;26.28;38.69;97473.69;18561120;31;20387;-49
2023/06/01 18:33:52;;;;;;;;;;;;;;;24.96;43.43;97463.97;18555622;31;19957;-50
2023/06/01 18:43:55;;;;;;;;;;;;;;;24.26;45.16;97459.56;18555658;32;19979;-53
2023/06/01 18:53:58;;;;;;;;;;;;;;;23.81;49.27;97470.87;18569125;32;20599;-49
2023/06/01 19:04:02;;;;;;;;;;;;;;;23.24;50.21;97466.88;18541414;32;20007;-49
2023/06/01 19:14:05;;;;;;;;;;;;;;;22.95;51.07;97478.00;18567875;32;19964;-47
2023/06/01 19:24:13;;;;;;;;;;;;;;;22.68;52.20;97472.22;18567163;32;19949;-48
2023/06/01 19:34:16;;;;;;;;;;;;;;;22.25;55.26;97482.09;18565871;32;20272;-48
2023/06/01 19:44:19;;;;;;;;;;;;;;;21.77;65.14;97486.63;18566059;32;19991;-47
2023/06/01 19:54:23;;;;;;;;;;;;;;;21.17;78.51;97487.16;18565395;32;20000;-48
2023/06/01 20:04:26;;;;;;;;;;;;;;;20.63;86.00;97488.91;18564843;32;19967;-47
2023/06/01 20:14:30;;;;;;;;;;;;;;;20.12;92.79;97496.56;18564770;31;19976;-49
2023/06/01 20:24:32;;;;;;;;;;;;;;;19.69;97.67;97492.22;18563656;32;20302;-47
2023/06/01 20:34:36;;;;;;;;;;;;;;;19.38;100.00;97507.13;18562936;31;19986;-52
2023/06/01 20:44:38;;;;;;;;;;;;;;;19.25;100.00;97507.03;18562391;32;20043;-50
2023/06/01 20:54:41;;;;;;;;;;;;;;;19.13;100.00;97499.50;18561897;32;19964;-49
2023/06/01 21:04:47;;;;;;;;;;;;;;;18.89;100.00;97499.31;18561973;32;19971;-48
2023/06/01 21:14:50;;;;;;;;;;;;;;;18.68;100.00;97496.44;18561086;32;19980;-48
2023/06/01 21:24:53;;;;;;;;;;;;;;;18.52;100.00;97496.97;18560710;32;19976;-50
2023/06/01 21:34:55;;;;;;;;;;;;;;;18.32;100.00;97490.25;18560771;32;19983;-49
2023/06/01 21:44:58;;;;;;;;;;;;;;;18.06;100.00;97490.28;18560293;32;20380;-47
2023/06/01 21:55:00;;;;;;;;;;;;;;;17.83;100.00;97497.84;18560062;32;19977;-51
2023/06/01 22:05:03;;;;;;;;;;;;;;;17.71;100.00;97506.69;18555115;31;19984;-49
2023/06/01 22:15:06;;;;;;;;;;;;;;;17.57;100.00;97510.38;18557678;32;19968;-51
2023/06/01 22:25:09;;;;;;;;;;;;;;;17.31;100.00;97510.34;18571111;32;20388;-48
2023/06/01 22:35:11;;;;;;;;;;;;;;;17.06;100.00;97520.06;18570250;32;20004;-48
2023/06/01 22:45:14;;;;;;;;;;;;;;;16.81;100.00;97519.59;18569590;32;20293;-47
2023/06/01 22:55:16;;;;;;;;;;;;;;;16.59;100.00;97521.28;18555060;32;19993;-47
2023/06/01 23:05:20;;;;;;;;;;;;;;;16.37;100.00;97527.56;18554369;32;20015;-49
2023/06/01 23:15:23;;;;;;;;;;;;;;;16.15;100.00;97520.19;18553687;32;19966;-48
2023/06/01 23:25:26;;;;;;;;;;;;;;;15.95;100.00;97523.41;18553042;32;19975;-49
2023/06/01 23:35:28;;;;;;;;;;;;;;;15.73;100.00;97530.41;18566453;32;19961;-48
2023/06/01 23:45:32;;;;;;;;;;;;;;;15.57;100.00;97529.97;18565968;32;19948;-47
2023/06/01 23:55:35;;;;;;;;;;;;;;;15.48;100.00;97531.78;18565433;31;20245;-47
